createdAt,value
2017-04-29T00:00:15.995Z,55.9
2017-04-29T00:01:17.796Z,56
2017-04-29T00:02:19.615Z,55.9
2017-04-29T00:03:21.872Z,56
2017-04-29T00:04:24.185Z,56
2017-04-29T00:05:25.987Z,55.9
2017-04-29T00:06:27.793Z,55.9
2017-04-29T00:07:29.605Z,55.9
2017-04-29T00:08:31.536Z,55.9
2017-04-29T00:09:33.341Z,56
2017-04-29T00:10:35.172Z,56
2017-04-29T00:11:36.976Z,56
2017-04-29T00:12:39.117Z,55.9
2017-04-29T00:13:40.920Z,55.8
2017-04-29T00:14:42.722Z,55.9
2017-04-29T00:15:44.524Z,55.8
2017-04-29T00:16:46.475Z,55.8
2017-04-29T00:17:48.668Z,55.9
2017-04-29T00:18:50.472Z,55.9
2017-04-29T00:19:52.608Z,56
2017-04-29T00:20:54.937Z,55.9
2017-04-29T00:21:56.734Z,56
2017-04-29T00:22:58.540Z,56
2017-04-29T00:24:00.335Z,56
2017-04-29T00:25:02.148Z,56
2017-04-29T00:26:04.113Z,55.9
2017-04-29T00:27:06.588Z,56
2017-04-29T00:28:08.388Z,56
2017-04-29T00:29:10.204Z,56
2017-04-29T00:30:12.125Z,56.1
2017-04-29T00:31:13.930Z,56.1
2017-04-29T00:32:15.737Z,56.2
2017-04-29T00:33:17.720Z,56.3
2017-04-29T00:34:19.710Z,57.2
2017-04-29T00:35:21.633Z,57.2
2017-04-29T00:36:23.895Z,57.3
2017-04-29T00:37:25.787Z,57.3
2017-04-29T00:38:27.930Z,57.2
2017-04-29T00:39:29.728Z,57.2
2017-04-29T00:40:31.524Z,57.3
2017-04-29T00:41:33.326Z,57.3
2017-04-29T00:42:35.122Z,57.3
2017-04-29T00:43:36.923Z,57.4
2017-04-29T00:44:38.721Z,57.3
2017-04-29T00:45:40.859Z,57.4
2017-04-29T00:46:42.663Z,57.5
2017-04-29T00:47:44.800Z,57.5
2017-04-29T00:48:46.596Z,57.5
2017-04-29T00:49:48.406Z,57.5
2017-04-29T00:50:50.313Z,57.6
2017-04-29T00:51:52.112Z,57.6
2017-04-29T00:52:54.115Z,57.6
2017-04-29T00:53:56.474Z,57.6
2017-04-29T00:54:58.726Z,57.7
2017-04-29T00:56:00.525Z,57.7
2017-04-29T00:57:02.333Z,57.7
2017-04-29T00:58:04.131Z,57.7
2017-04-29T00:59:05.940Z,57.7
2017-04-29T01:00:07.738Z,57.6
2017-04-29T01:01:09.542Z,57.7
2017-04-29T01:02:11.343Z,57.7
2017-04-29T01:03:13.482Z,57.7
2017-04-29T01:04:15.288Z,57.7
2017-04-29T01:05:17.088Z,57.7
2017-04-29T01:06:18.887Z,57.8
2017-04-29T01:07:21.023Z,57.8
2017-04-29T01:08:22.828Z,57.8
2017-04-29T01:09:24.792Z,57.7
2017-04-29T01:10:27.039Z,57.7
2017-04-29T01:11:28.911Z,57.9
2017-04-29T01:12:30.867Z,57.8
2017-04-29T01:13:33.187Z,57.9
2017-04-29T01:14:35.209Z,57.9
2017-04-29T01:15:37.038Z,57.9
2017-04-29T01:16:38.845Z,58
2017-04-29T01:17:40.645Z,58
2017-04-29T01:18:42.787Z,57.9
2017-04-29T01:19:44.586Z,58
2017-04-29T01:20:46.393Z,58
2017-04-29T01:21:48.537Z,58
2017-04-29T01:22:50.333Z,57.9
2017-04-29T01:23:52.130Z,58
2017-04-29T01:24:53.937Z,57.9
2017-04-29T01:25:55.780Z,58
2017-04-29T01:26:57.583Z,57.9
2017-04-29T01:27:59.720Z,58
2017-04-29T01:29:01.522Z,58
2017-04-29T01:30:03.325Z,57.9
2017-04-29T01:31:05.225Z,57.9
2017-04-29T01:32:07.479Z,57.9
2017-04-29T01:33:09.441Z,58
2017-04-29T01:34:11.286Z,57.9
2017-04-29T01:35:13.288Z,57.9
2017-04-29T01:36:15.493Z,58
2017-04-29T01:37:17.285Z,57.8
2017-04-29T01:38:19.087Z,57.8
2017-04-29T01:39:20.892Z,57.8
2017-04-29T01:40:23.036Z,57.9
2017-04-29T01:41:24.837Z,57.9
2017-04-29T01:42:26.971Z,57.8
2017-04-29T01:43:28.775Z,57.9
2017-04-29T01:44:30.579Z,57.8
2017-04-29T01:45:32.381Z,57.9
2017-04-29T01:46:34.183Z,57.8
2017-04-29T01:47:35.995Z,57.8
2017-04-29T01:48:38.012Z,57.8
2017-04-29T01:49:39.820Z,57.9
2017-04-29T01:50:41.796Z,57.9
2017-04-29T01:51:43.776Z,57.9
2017-04-29T01:52:45.575Z,57.8
2017-04-29T01:53:48.061Z,57.9
2017-04-29T01:54:49.864Z,58
2017-04-29T01:55:51.659Z,58
2017-04-29T01:56:53.460Z,58
2017-04-29T01:57:55.265Z,58
2017-04-29T01:58:57.067Z,58
2017-04-29T01:59:59.209Z,58
2017-04-29T02:01:01.002Z,58.1
2017-04-29T02:02:02.799Z,58.1
2017-04-29T02:03:04.605Z,58.1
2017-04-29T02:04:06.402Z,58
2017-04-29T02:05:08.199Z,58
2017-04-29T02:06:10.002Z,58.1
2017-04-29T02:07:11.796Z,58.1
2017-04-29T02:08:13.598Z,58
2017-04-29T02:09:15.530Z,58
2017-04-29T02:10:17.693Z,58
2017-04-29T02:11:19.496Z,58.1
2017-04-29T02:12:21.636Z,58.2
2017-04-29T02:13:23.773Z,58
2017-04-29T02:14:25.576Z,58.1
2017-04-29T02:15:27.382Z,58.1
2017-04-29T02:16:29.176Z,58.2
2017-04-29T02:17:30.973Z,58.2
2017-04-29T02:18:33.111Z,58.1
2017-04-29T02:19:34.917Z,58.2
2017-04-29T02:20:36.712Z,58.3
2017-04-29T02:21:38.516Z,58.3
2017-04-29T02:22:40.317Z,58.3
2017-04-29T02:23:42.451Z,58.2
2017-04-29T02:24:44.255Z,58.3
2017-04-29T02:25:46.049Z,58.2
2017-04-29T02:26:47.851Z,58.2
2017-04-29T02:27:49.650Z,58.2
2017-04-29T02:28:51.449Z,58.3
2017-04-29T02:29:53.251Z,58.2
2017-04-29T02:30:55.212Z,58.3
2017-04-29T02:31:57.350Z,58.3
2017-04-29T02:32:59.148Z,58.3
2017-04-29T02:34:00.941Z,58.2
2017-04-29T02:35:02.738Z,58.3
2017-04-29T02:36:04.536Z,58.3
2017-04-29T02:37:06.794Z,58.2
2017-04-29T02:38:08.591Z,58.3
2017-04-29T02:39:10.390Z,58.3
2017-04-29T02:40:12.189Z,58.3
2017-04-29T02:41:13.989Z,58.3
2017-04-29T02:42:15.786Z,58.3
2017-04-29T02:43:17.586Z,58.4
2017-04-29T02:44:19.384Z,58.4
2017-04-29T02:45:21.185Z,58.4
2017-04-29T02:46:22.979Z,58.4
2017-04-29T02:47:24.776Z,58.4
2017-04-29T02:48:26.577Z,58.5
2017-04-29T02:49:28.384Z,58.5
2017-04-29T02:50:30.522Z,58.5
2017-04-29T02:51:32.322Z,58.5
2017-04-29T02:52:34.127Z,58.5
2017-04-29T02:53:36.118Z,58.6
2017-04-29T02:54:38.427Z,58.6
2017-04-29T02:55:40.216Z,58.5
2017-04-29T02:56:42.017Z,58.5
2017-04-29T02:57:43.812Z,58.6
2017-04-29T02:58:45.614Z,58.5
2017-04-29T02:59:47.758Z,58.5
2017-04-29T03:00:49.555Z,58.5
2017-04-29T03:01:51.345Z,58.5
2017-04-29T03:02:53.483Z,58.6
2017-04-29T03:03:55.313Z,58.7
2017-04-29T03:04:57.445Z,58.6
2017-04-29T03:05:59.250Z,58.6
2017-04-29T03:07:01.095Z,58.7
2017-04-29T03:08:02.898Z,58.7
2017-04-29T03:09:04.899Z,58.7
2017-04-29T03:10:06.910Z,58.7
2017-04-29T03:11:08.703Z,58.7
2017-04-29T03:12:10.502Z,58.8
2017-04-29T03:13:12.301Z,58.8
2017-04-29T03:14:14.092Z,58.7
2017-04-29T03:15:15.894Z,58.7
2017-04-29T03:16:17.687Z,58.8
2017-04-29T03:17:19.481Z,58.8
2017-04-29T03:18:21.615Z,58.7
2017-04-29T03:19:23.762Z,58.7
2017-04-29T03:20:25.557Z,58.8
2017-04-29T03:21:27.360Z,58.8
2017-04-29T03:22:29.163Z,58.8
2017-04-29T03:23:31.290Z,58.8
2017-04-29T03:24:33.309Z,58.8
2017-04-29T03:25:35.461Z,58.9
2017-04-29T03:26:37.260Z,58.9
2017-04-29T03:27:39.062Z,58.9
2017-04-29T03:28:40.857Z,58.9
2017-04-29T03:29:42.657Z,58.9
2017-04-29T03:30:44.453Z,58.9
2017-04-29T03:31:46.253Z,58.9
2017-04-29T03:32:48.050Z,58.9
2017-04-29T03:33:50.196Z,58.9
2017-04-29T03:34:51.996Z,58.9
2017-04-29T03:35:53.793Z,58.9
2017-04-29T03:36:55.590Z,58.9
2017-04-29T03:37:57.389Z,58.9
2017-04-29T03:38:59.186Z,58.9
2017-04-29T03:40:00.989Z,59
2017-04-29T03:41:02.782Z,58.9
2017-04-29T03:42:04.587Z,58.9
2017-04-29T03:43:06.382Z,58.8
2017-04-29T03:44:08.394Z,58.9
2017-04-29T03:45:10.635Z,58.9
2017-04-29T03:46:12.430Z,58.9
2017-04-29T03:47:14.228Z,59
2017-04-29T03:48:16.023Z,59
2017-04-29T03:49:17.823Z,59
2017-04-29T03:50:19.630Z,59
2017-04-29T03:51:21.427Z,59
2017-04-29T03:52:23.329Z,58.9
2017-04-29T03:53:25.120Z,58.9
2017-04-29T03:54:26.922Z,59
2017-04-29T03:55:28.716Z,59
2017-04-29T03:56:30.516Z,58.9
2017-04-29T03:57:32.644Z,58.9
2017-04-29T03:58:34.446Z,59
2017-04-29T03:59:36.591Z,59.1
2017-04-29T04:00:38.387Z,59.1
2017-04-29T04:01:40.181Z,59.1
2017-04-29T04:02:41.980Z,59.2
2017-04-29T04:03:43.776Z,59.2
2017-04-29T04:04:45.579Z,59.2
2017-04-29T04:05:47.561Z,59.3
2017-04-29T04:06:49.533Z,59.2
2017-04-29T04:07:51.713Z,59.2
2017-04-29T04:08:53.854Z,59.2
2017-04-29T04:09:55.990Z,59.2
2017-04-29T04:10:58.472Z,59.2
2017-04-29T04:12:00.276Z,59.2
2017-04-29T04:13:02.074Z,59.2
2017-04-29T04:14:03.878Z,59.2
2017-04-29T04:15:05.677Z,59.2
2017-04-29T04:16:07.498Z,59.2
2017-04-29T04:17:09.417Z,59.2
2017-04-29T04:18:11.725Z,59.1
2017-04-29T04:19:13.520Z,59.1
2017-04-29T04:20:15.314Z,59.2
2017-04-29T04:21:17.119Z,59.2
2017-04-29T04:22:18.913Z,59.2
2017-04-29T04:23:20.716Z,59.3
2017-04-29T04:24:22.842Z,59.3
2017-04-29T04:25:24.981Z,59.2
2017-04-29T04:26:26.781Z,59.3
2017-04-29T04:27:28.585Z,59.2
2017-04-29T04:28:30.386Z,59.2
2017-04-29T04:29:32.185Z,59.2
2017-04-29T04:30:33.992Z,59.2
2017-04-29T04:31:35.789Z,59.2
2017-04-29T04:32:37.596Z,59.2
2017-04-29T04:33:39.396Z,59.2
2017-04-29T04:34:41.413Z,59.1
2017-04-29T04:35:43.391Z,59.1
2017-04-29T04:36:45.184Z,59.2
2017-04-29T04:37:46.987Z,59.2
2017-04-29T04:38:48.778Z,59.2
2017-04-29T04:39:50.913Z,59.2
2017-04-29T04:40:52.714Z,59.1
2017-04-29T04:41:54.510Z,59.2
2017-04-29T04:42:56.311Z,59.2
2017-04-29T04:43:58.106Z,59.1
2017-04-29T04:44:59.907Z,59.1
2017-04-29T04:46:01.722Z,59.1
2017-04-29T04:47:03.519Z,59.1
2017-04-29T04:48:05.320Z,59.1
2017-04-29T04:49:07.117Z,59.1
2017-04-29T04:50:08.940Z,59.1
2017-04-29T04:51:10.742Z,59.1
2017-04-29T04:52:12.537Z,59.2
2017-04-29T04:53:14.366Z,59.2
2017-04-29T04:54:16.161Z,59.2
2017-04-29T04:55:17.962Z,59.1
2017-04-29T04:56:19.762Z,59.2
2017-04-29T04:57:21.562Z,59
2017-04-29T04:58:23.705Z,58.9
2017-04-29T04:59:25.512Z,59.1
2017-04-29T05:00:27.313Z,59
2017-04-29T05:01:29.102Z,59
2017-04-29T05:02:30.901Z,59.1
2017-04-29T05:03:32.696Z,59.1
2017-04-29T05:04:34.494Z,59.1
2017-04-29T05:05:36.289Z,59.2
2017-04-29T05:06:38.085Z,59.1
2017-04-29T05:07:39.882Z,59.2
2017-04-29T05:08:41.689Z,59.3
2017-04-29T05:09:43.490Z,59.3
2017-04-29T05:10:45.281Z,59.3
2017-04-29T05:11:47.080Z,59.2
2017-04-29T05:12:48.883Z,59.3
2017-04-29T05:13:50.684Z,59.2
2017-04-29T05:14:52.828Z,59.3
2017-04-29T05:15:54.620Z,59.2
2017-04-29T05:16:56.422Z,59.2
2017-04-29T05:17:58.220Z,59.2
2017-04-29T05:19:00.020Z,59.2
2017-04-29T05:20:01.815Z,59.2
2017-04-29T05:21:03.611Z,59.2
2017-04-29T05:22:06.116Z,59.2
2017-04-29T05:23:07.916Z,59.2
2017-04-29T05:24:09.709Z,59.3
2017-04-29T05:25:11.846Z,59.4
2017-04-29T05:26:13.643Z,59.3
2017-04-29T05:27:15.451Z,59.2
2017-04-29T05:28:17.248Z,59.3
2017-04-29T05:29:19.055Z,59.3
2017-04-29T05:30:20.855Z,59.2
2017-04-29T05:31:22.653Z,59.2
2017-04-29T05:32:24.794Z,59.2
2017-04-29T05:33:26.632Z,59.2
2017-04-29T05:34:29.455Z,59
2017-04-29T05:35:31.592Z,59
2017-04-29T05:36:33.390Z,59
2017-04-29T05:37:35.527Z,59.1
2017-04-29T05:38:37.356Z,59.2
2017-04-29T05:39:39.153Z,59.2
2017-04-29T05:40:40.948Z,59.3
2017-04-29T05:41:43.081Z,59.4
2017-04-29T05:42:44.876Z,59.2
2017-04-29T05:43:46.671Z,59.3
2017-04-29T05:44:48.467Z,59.2
2017-04-29T05:45:50.269Z,59.3
2017-04-29T05:46:52.070Z,59.3
2017-04-29T05:47:54.211Z,59.4
2017-04-29T05:48:56.012Z,59.5
2017-04-29T05:49:57.817Z,59.5
2017-04-29T05:51:00.639Z,59.6
2017-04-29T05:52:02.439Z,59.6
2017-04-29T05:53:04.241Z,59.5
2017-04-29T05:54:06.036Z,59.4
2017-04-29T05:55:08.192Z,59.3
2017-04-29T05:56:09.999Z,59.3
2017-04-29T05:57:11.793Z,59.2
2017-04-29T05:58:13.598Z,59.2
2017-04-29T05:59:15.393Z,59.3
2017-04-29T06:00:17.534Z,59.3
2017-04-29T06:01:19.329Z,59.3
2017-04-29T06:02:21.126Z,59.2
2017-04-29T06:03:22.924Z,59.2
2017-04-29T06:04:24.721Z,59.1
2017-04-29T06:05:26.525Z,59.1
2017-04-29T06:06:28.369Z,59.2
2017-04-29T06:07:30.184Z,59.1
2017-04-29T06:08:31.997Z,59.2
2017-04-29T06:09:33.801Z,59.2
2017-04-29T06:10:35.602Z,59.2
2017-04-29T06:11:37.397Z,59.3
2017-04-29T06:12:39.199Z,59.3
2017-04-29T06:13:41.007Z,59.3
2017-04-29T06:14:42.803Z,59.4
2017-04-29T06:15:44.599Z,59.4
2017-04-29T06:16:46.736Z,59.3
2017-04-29T06:17:48.538Z,59.1
2017-04-29T06:18:50.339Z,59.2
2017-04-29T06:19:52.141Z,59.2
2017-04-29T06:20:53.947Z,59.4
2017-04-29T06:21:55.749Z,59.3
2017-04-29T06:22:57.553Z,59.2
2017-04-29T06:23:59.350Z,59.2
2017-04-29T06:25:01.152Z,59.3
2017-04-29T06:26:02.961Z,59.2
2017-04-29T06:27:04.759Z,59.2
2017-04-29T06:28:06.894Z,59.5
2017-04-29T06:29:08.694Z,59.4
2017-04-29T06:30:10.499Z,59.4
2017-04-29T06:31:12.635Z,59.4
2017-04-29T06:32:14.442Z,59.4
2017-04-29T06:33:16.237Z,59.4
2017-04-29T06:34:18.044Z,59.2
2017-04-29T06:35:19.843Z,59.1
2017-04-29T06:36:21.646Z,59.1
2017-04-29T06:37:23.442Z,59.1
2017-04-29T06:38:25.244Z,59.1
2017-04-29T06:39:27.044Z,59.1
2017-04-29T06:40:28.845Z,59.1
2017-04-29T06:41:30.645Z,59.2
2017-04-29T06:42:32.784Z,59.2
2017-04-29T06:43:34.582Z,59.3
2017-04-29T06:44:36.381Z,59.2
2017-04-29T06:45:38.520Z,59.2
2017-04-29T06:46:40.317Z,59.2
2017-04-29T06:47:42.117Z,59.2
2017-04-29T06:48:43.919Z,59.2
2017-04-29T06:49:46.063Z,59.3
2017-04-29T06:50:47.861Z,59.2
2017-04-29T06:51:49.663Z,59.2
2017-04-29T06:52:51.802Z,59.2
2017-04-29T06:53:53.955Z,59.3
2017-04-29T06:54:56.093Z,59.3
2017-04-29T06:55:58.265Z,58.4
2017-04-29T06:57:00.063Z,58.3
2017-04-29T06:58:01.869Z,58.1
2017-04-29T06:59:03.667Z,58.1
2017-04-29T07:00:06.149Z,58
2017-04-29T07:01:07.949Z,58
2017-04-29T07:02:10.090Z,58.1
2017-04-29T07:03:11.895Z,58
2017-04-29T07:04:13.702Z,58.1
2017-04-29T07:05:15.511Z,58.1
2017-04-29T07:06:17.316Z,58.1
2017-04-29T07:07:19.112Z,58.3
2017-04-29T07:08:20.917Z,58.3
2017-04-29T07:09:23.283Z,58.1
2017-04-29T07:10:25.586Z,58
2017-04-29T07:11:27.389Z,57.9
2017-04-29T07:12:29.195Z,57.9
2017-04-29T07:13:31.334Z,57.8
2017-04-29T07:14:33.475Z,57.8
2017-04-29T07:15:35.630Z,57.7
2017-04-29T07:16:37.442Z,57.7
2017-04-29T07:17:39.250Z,57.6
2017-04-29T07:18:41.400Z,57.7
2017-04-29T07:19:43.203Z,57.7
2017-04-29T07:20:45.012Z,57.7
2017-04-29T07:21:46.811Z,57.8
2017-04-29T07:22:48.625Z,57.7
2017-04-29T07:23:50.442Z,57.7
2017-04-29T07:24:52.251Z,57.8
2017-04-29T07:25:54.055Z,57.7
2017-04-29T07:26:55.869Z,57.8
2017-04-29T07:27:57.687Z,57.7
2017-04-29T07:28:59.503Z,57.6
2017-04-29T07:30:01.996Z,57.5
2017-04-29T07:31:03.803Z,57.6
2017-04-29T07:32:05.606Z,57.5
2017-04-29T07:33:07.412Z,57.6
2017-04-29T07:34:09.266Z,57.7
2017-04-29T07:35:11.112Z,57.6
2017-04-29T07:36:12.925Z,57.7
2017-04-29T07:37:14.797Z,57.8
2017-04-29T07:38:16.683Z,57.8
2017-04-29T07:39:18.506Z,57.7
2017-04-29T07:40:20.323Z,57.6
2017-04-29T07:41:22.143Z,57.7
2017-04-29T07:42:23.976Z,57.6
2017-04-29T07:43:25.777Z,57.5
2017-04-29T07:44:27.659Z,57.4
2017-04-29T07:45:29.510Z,57.3
2017-04-29T07:46:31.324Z,57.2
2017-04-29T07:47:33.467Z,57.3
2017-04-29T07:48:35.299Z,57.2
2017-04-29T07:49:37.114Z,57.3
2017-04-29T07:50:39.272Z,57.3
2017-04-29T07:51:41.075Z,57.4
2017-04-29T07:52:42.886Z,57.3
2017-04-29T07:53:44.698Z,57.3
2017-04-29T07:54:46.511Z,57.3
2017-04-29T07:55:48.334Z,57.3
2017-04-29T07:56:50.144Z,57.2
2017-04-29T07:57:51.961Z,57
2017-04-29T07:58:53.810Z,57.2
2017-04-29T07:59:55.615Z,57.3
2017-04-29T08:00:57.422Z,57.2
2017-04-29T08:01:59.230Z,57.3
2017-04-29T08:03:01.060Z,57.1
2017-04-29T08:04:02.858Z,56.9
2017-04-29T08:05:04.666Z,56.8
2017-04-29T08:06:06.486Z,56.5
2017-04-29T08:07:08.311Z,56.4
2017-04-29T08:08:10.122Z,56.4
2017-04-29T08:09:11.934Z,56.3
2017-04-29T08:10:13.751Z,56.4
2017-04-29T08:11:15.555Z,56.4
2017-04-29T08:12:17.365Z,56.4
2017-04-29T08:13:19.172Z,56.3
2017-04-29T08:14:20.984Z,56.2
2017-04-29T08:15:23.127Z,56.1
2017-04-29T08:16:24.939Z,56.2
2017-04-29T08:17:26.742Z,56.2
2017-04-29T08:18:28.547Z,56.3
2017-04-29T08:19:30.347Z,56.3
2017-04-29T08:20:32.164Z,56.2
2017-04-29T08:21:33.974Z,55.9
2017-04-29T08:22:36.120Z,55.9
2017-04-29T08:23:37.929Z,55.9
2017-04-29T08:24:40.081Z,56
2017-04-29T08:25:41.897Z,56.2
2017-04-29T08:26:43.695Z,56.4
2017-04-29T08:27:45.505Z,56.5
2017-04-29T08:28:47.310Z,56.6
2017-04-29T08:29:49.280Z,56.4
2017-04-29T08:30:51.526Z,56.5
2017-04-29T08:31:53.692Z,56.6
2017-04-29T08:32:55.885Z,56.6
2017-04-29T08:33:58.070Z,56.8
2017-04-29T08:35:00.116Z,56.8
2017-04-29T08:36:01.927Z,56.9
2017-04-29T08:37:03.769Z,56.6
2017-04-29T08:38:05.917Z,56.4
2017-04-29T08:39:07.725Z,56.1
2017-04-29T08:40:09.535Z,55.9
2017-04-29T08:41:11.342Z,55.6
2017-04-29T08:42:13.151Z,55.6
2017-04-29T08:43:14.959Z,55.3
2017-04-29T08:44:16.762Z,55.3
2017-04-29T08:45:18.916Z,55.3
2017-04-29T08:46:20.721Z,55.3
2017-04-29T08:47:23.313Z,55.2
2017-04-29T08:48:26.663Z,55.3
2017-04-29T08:49:28.467Z,55.2
2017-04-29T08:50:30.613Z,55.2
2017-04-29T08:51:32.416Z,55.1
2017-04-29T08:52:34.353Z,55
2017-04-29T08:53:36.271Z,55.2
2017-04-29T08:54:38.083Z,55.2
2017-04-29T08:55:39.888Z,55.2
2017-04-29T08:56:41.793Z,55.1
2017-04-29T08:57:43.602Z,55.1
2017-04-29T08:58:45.410Z,55
2017-04-29T08:59:47.215Z,55.2
2017-04-29T09:00:49.040Z,55.4
2017-04-29T09:01:50.855Z,55.3
2017-04-29T09:02:52.659Z,55.2
2017-04-29T09:03:54.806Z,55.2
2017-04-29T09:04:57.073Z,55.2
2017-04-29T09:05:59.239Z,55.1
2017-04-29T09:07:01.272Z,55.2
2017-04-29T09:08:03.074Z,55.2
2017-04-29T09:09:04.883Z,55.2
2017-04-29T09:10:06.692Z,55.2
2017-04-29T09:11:08.503Z,54.9
2017-04-29T09:12:10.605Z,54.9
2017-04-29T09:13:12.741Z,55
2017-04-29T09:14:14.542Z,55
2017-04-29T09:15:16.685Z,54.9
2017-04-29T09:16:18.837Z,54.9
2017-04-29T09:17:20.648Z,54.9
2017-04-29T09:18:22.788Z,54.8
2017-04-29T09:19:24.602Z,54.9
2017-04-29T09:20:26.744Z,55
2017-04-29T09:21:28.886Z,55.1
2017-04-29T09:22:30.694Z,55.2
2017-04-29T09:23:32.834Z,55.1
2017-04-29T09:24:34.973Z,55.1
2017-04-29T09:25:36.789Z,54.9
2017-04-29T09:26:38.600Z,54.9
2017-04-29T09:27:40.402Z,54.8
2017-04-29T09:28:42.206Z,54.9
2017-04-29T09:29:44.346Z,55
2017-04-29T09:30:46.146Z,55.1
2017-04-29T09:31:47.952Z,55.2
2017-04-29T09:32:49.764Z,55.2
2017-04-29T09:33:51.573Z,55.4
2017-04-29T09:34:53.384Z,55.4
2017-04-29T09:35:55.525Z,55.6
2017-04-29T09:36:57.337Z,56
2017-04-29T09:37:59.136Z,56.2
2017-04-29T09:39:00.988Z,56.8
2017-04-29T09:40:03.185Z,57.4
2017-04-29T09:41:05.331Z,57.8
2017-04-29T09:42:07.139Z,57.3
2017-04-29T09:43:08.941Z,57
2017-04-29T09:44:10.756Z,56.8
2017-04-29T09:45:12.567Z,56.9
2017-04-29T09:46:14.378Z,56.7
2017-04-29T09:47:16.188Z,56.4
2017-04-29T09:48:18.334Z,56.1
2017-04-29T09:49:20.822Z,55.9
2017-04-29T09:50:22.627Z,55.9
2017-04-29T09:51:24.438Z,55.9
2017-04-29T09:52:26.242Z,55.8
2017-04-29T09:53:28.049Z,55.9
2017-04-29T09:54:29.860Z,55.2
2017-04-29T09:55:31.668Z,54.8
2017-04-29T09:56:33.473Z,54.2
2017-04-29T09:57:35.282Z,53.7
2017-04-29T09:58:37.439Z,53.8
2017-04-29T09:59:39.582Z,53.7
2017-04-29T10:00:41.393Z,53.8
2017-04-29T10:01:43.200Z,53.8
2017-04-29T10:02:45.007Z,54
2017-04-29T10:03:46.818Z,54.1
2017-04-29T10:04:48.632Z,54.2
2017-04-29T10:05:50.437Z,54.8
2017-04-29T10:06:52.243Z,54.7
2017-04-29T10:07:54.058Z,54.5
2017-04-29T10:08:56.206Z,54.1
2017-04-29T10:09:58.012Z,53.9
2017-04-29T10:10:59.825Z,54
2017-04-29T10:12:01.634Z,54.8
2017-04-29T10:13:03.442Z,55.5
2017-04-29T10:14:05.594Z,55.1
2017-04-29T10:15:07.397Z,55.2
2017-04-29T10:16:09.214Z,55.7
2017-04-29T10:17:11.355Z,56
2017-04-29T10:18:13.168Z,56.3
2017-04-29T10:19:14.974Z,56.4
2017-04-29T10:20:17.127Z,56.1
2017-04-29T10:21:18.937Z,55.8
2017-04-29T10:22:20.745Z,55.6
2017-04-29T10:23:22.561Z,55
2017-04-29T10:24:24.711Z,54.4
2017-04-29T10:25:26.525Z,53.8
2017-04-29T10:26:28.692Z,54.2
2017-04-29T10:27:30.858Z,54
2017-04-29T10:28:32.671Z,53.8
2017-04-29T10:29:34.474Z,53.6
2017-04-29T10:30:36.290Z,53.2
2017-04-29T10:31:38.098Z,52.6
2017-04-29T10:32:40.250Z,52.1
2017-04-29T10:33:42.395Z,51.9
2017-04-29T10:34:44.207Z,51.5
2017-04-29T10:35:46.015Z,51.6
2017-04-29T10:36:48.162Z,51.6
2017-04-29T10:37:50.306Z,51.8
2017-04-29T10:38:52.117Z,52
2017-04-29T10:39:53.927Z,51.9
2017-04-29T10:40:55.742Z,52
2017-04-29T10:41:57.548Z,52.2
2017-04-29T10:42:59.360Z,52.9
2017-04-29T10:44:01.176Z,52.8
2017-04-29T10:45:02.990Z,52.2
2017-04-29T10:46:04.802Z,51.8
2017-04-29T10:47:06.615Z,51.6
2017-04-29T10:48:08.430Z,51.5
2017-04-29T10:49:10.249Z,52
2017-04-29T10:50:12.062Z,52.4
2017-04-29T10:51:13.872Z,52.3
2017-04-29T10:52:16.022Z,52.2
2017-04-29T10:53:17.838Z,52.1
2017-04-29T10:54:19.998Z,51.9
2017-04-29T10:55:21.810Z,51.7
2017-04-29T10:56:23.615Z,51.6
2017-04-29T10:57:25.434Z,51.3
2017-04-29T10:58:27.577Z,51.3
2017-04-29T10:59:29.729Z,51.3
2017-04-29T11:00:31.537Z,51.2
2017-04-29T11:01:33.692Z,51.1
2017-04-29T11:02:35.511Z,51
2017-04-29T11:03:37.663Z,50.8
2017-04-29T11:04:39.813Z,50.6
2017-04-29T11:05:41.629Z,50.5
2017-04-29T11:06:43.778Z,50.6
2017-04-29T11:07:45.592Z,50.7
2017-04-29T11:08:47.408Z,50.9
2017-04-29T11:09:49.555Z,51.2
2017-04-29T11:10:51.695Z,51.5
2017-04-29T11:11:53.512Z,51.6
2017-04-29T11:12:55.668Z,51.7
2017-04-29T11:13:57.480Z,51.9
2017-04-29T11:14:59.285Z,51.3
2017-04-29T11:16:01.098Z,51.5
2017-04-29T11:17:02.913Z,51.9
2017-04-29T11:18:05.060Z,51.8
2017-04-29T11:19:06.869Z,51.8
2017-04-29T11:20:08.674Z,51.9
2017-04-29T11:21:10.485Z,51.8
2017-04-29T11:22:12.298Z,52
2017-04-29T11:23:14.111Z,52.1
2017-04-29T11:24:15.918Z,52.4
2017-04-29T11:25:17.731Z,52.4
2017-04-29T11:26:19.544Z,52.4
2017-04-29T11:27:21.349Z,52.4
2017-04-29T11:44:57.150Z,52.3
2017-04-29T11:45:59.351Z,52.3
2017-04-29T11:47:01.190Z,52.3
2017-04-29T11:48:03.040Z,52.4
2017-04-29T11:49:04.894Z,52.9
2017-04-29T11:50:06.763Z,53.2
2017-04-29T11:51:08.616Z,53.5
2017-04-29T11:52:10.456Z,53.6
2017-04-29T11:53:12.311Z,53.6
2017-04-29T11:54:14.156Z,53.2
2017-04-29T11:55:16.351Z,52.6
2017-04-29T11:56:18.204Z,52.5
2017-04-29T11:57:20.053Z,52.4
2017-04-29T11:58:21.914Z,52.4
2017-04-29T11:59:24.473Z,52.5
2017-04-29T12:00:26.319Z,52.3
2017-04-29T12:01:28.179Z,52.1
2017-04-29T12:02:30.032Z,52
2017-04-29T12:03:31.893Z,52.1
2017-04-29T12:04:33.740Z,52
2017-04-29T12:05:35.599Z,52
2017-04-29T12:06:37.449Z,51.8
2017-04-29T12:07:39.340Z,51.8
2017-04-29T12:08:41.199Z,51.4
2017-04-29T12:09:43.395Z,51.1
2017-04-29T12:10:45.251Z,50.5
2017-04-29T12:11:47.094Z,50.3
2017-04-29T12:12:48.947Z,50.2
2017-04-29T12:13:50.801Z,50.2
2017-04-29T12:14:52.668Z,50.2
2017-04-29T12:15:55.217Z,50
2017-04-29T12:16:57.070Z,49.7
2017-04-29T12:17:58.928Z,49.8
2017-04-29T12:19:01.127Z,49.9
2017-04-29T12:20:03.338Z,50
2017-04-29T12:21:05.539Z,49.6
2017-04-29T12:22:07.389Z,49.4
2017-04-29T12:23:09.265Z,49.6
2017-04-29T12:24:11.113Z,49.7
2017-04-29T12:25:12.979Z,49.8
2017-04-29T12:26:15.178Z,49.6
2017-04-29T12:27:17.046Z,49.7
2017-04-29T12:28:18.905Z,49.9
2017-04-29T12:29:21.106Z,49.9
2017-04-29T12:30:22.962Z,50
2017-04-29T12:31:24.816Z,50
2017-04-29T12:32:26.675Z,50.1
2017-04-29T12:35:45.540Z,49.7
2017-04-29T12:36:47.399Z,49.6
2017-04-29T12:37:49.249Z,49.2
2017-04-29T12:38:51.115Z,49
2017-04-29T12:39:52.966Z,48.8
2017-04-29T12:40:54.827Z,48.6
2017-04-29T12:41:57.023Z,48.7
2017-04-29T12:42:58.880Z,48.9
2017-04-29T12:44:00.739Z,49
2017-04-29T12:45:02.599Z,49
2017-04-29T12:46:04.448Z,49
2017-04-29T12:47:06.310Z,49
2017-04-29T12:48:08.510Z,48.8
2017-04-29T12:49:10.366Z,48.9
2017-04-29T12:50:12.221Z,48.5
2017-04-29T12:51:14.091Z,48.5
2017-04-29T12:52:15.950Z,48.4
2017-04-29T12:53:17.815Z,48.1
2017-04-29T12:54:20.350Z,47.8
2017-04-29T12:55:22.227Z,47.4
2017-04-29T12:56:24.081Z,47.4
2017-04-29T12:57:25.944Z,47.5
2017-04-29T12:58:27.813Z,47.4
2017-04-29T12:59:29.680Z,47.3
2017-04-29T13:00:31.537Z,47.1
2017-04-29T13:01:33.390Z,47
2017-04-29T13:02:35.247Z,47.2
2017-04-29T13:06:50.148Z,47.2
2017-04-29T13:07:51.998Z,47.1
2017-04-29T13:08:53.878Z,47.3
2017-04-29T13:23:12.719Z,48.8
2017-04-29T13:24:14.600Z,48.3
2017-04-29T13:29:11.913Z,48.5
2017-04-29T13:30:13.802Z,48.5
2017-04-29T13:31:16.033Z,48.5
2017-04-29T13:32:17.926Z,48.5
2017-04-29T13:35:00.852Z,48.3
2017-04-29T13:36:02.699Z,48.4
2017-04-29T13:37:04.551Z,48.5
2017-04-29T13:38:06.410Z,48.5
2017-04-29T13:39:08.276Z,48.6
2017-04-29T13:40:10.143Z,48.6
2017-04-29T13:41:11.990Z,48.8
2017-04-29T13:42:13.853Z,49
2017-04-29T13:43:15.708Z,48.9
2017-04-29T13:44:17.561Z,48.9
2017-04-29T13:45:19.415Z,48.8
2017-04-29T13:46:21.273Z,48.7
2017-04-29T13:47:23.130Z,48.6
2017-04-29T13:48:25.029Z,48.5
2017-04-29T13:49:26.873Z,48.4
2017-04-29T13:50:29.069Z,48.4
2017-04-29T13:51:30.918Z,48.3
2017-04-29T13:52:32.769Z,48.7
2017-04-29T13:53:34.620Z,49
2017-04-29T13:54:36.467Z,49.1
2017-04-29T13:55:38.331Z,49.3
2017-04-29T13:56:40.178Z,49.1
2017-04-29T13:57:42.037Z,48.7
2017-04-29T13:58:43.887Z,48.6
2017-04-29T13:59:45.734Z,48.6
2017-04-29T14:00:47.587Z,48.8
2017-04-29T14:01:49.443Z,48.8
2017-04-29T14:02:51.294Z,48.9
2017-04-29T14:03:53.157Z,49
2017-04-29T14:04:55.014Z,49.1
2017-04-29T14:05:56.863Z,49.1
2017-04-29T14:06:58.754Z,49
2017-04-29T14:08:00.601Z,48.7
2017-04-29T14:09:02.807Z,48.5
2017-04-29T14:10:04.658Z,48.4
2017-04-29T14:11:06.517Z,48.4
2017-04-29T14:12:08.368Z,48.4
2017-04-29T14:13:10.225Z,48.6
2017-04-29T14:14:12.434Z,48.6
2017-04-29T14:16:25.291Z,48.3
2017-04-29T14:17:27.150Z,48.1
2017-04-29T14:26:03.587Z,46.8
2017-04-29T14:27:05.443Z,46.5
2017-04-29T14:28:07.307Z,46.3
2017-04-29T14:29:09.513Z,46
2017-04-29T14:30:11.723Z,45.7
2017-04-29T14:31:13.579Z,45.5
2017-04-29T14:32:15.435Z,45.2
2017-04-29T14:33:17.289Z,45.1
2017-04-29T14:34:19.848Z,44.9
2017-04-29T14:35:21.703Z,44.5
2017-04-29T14:36:23.898Z,44.2
2017-04-29T14:37:25.753Z,44
2017-04-29T14:38:27.967Z,43.7
2017-04-29T14:39:30.185Z,43.5